sensor_id;sensor_type;location;lat;lon;timestamp;pressure;altitude;pressure_sealevel;temperature;humidity
74230;BME280;62589;12.568;99.958;2023-03-04T00:02:06;101439.72;;;31.81;43.49
74230;BME280;62589;12.568;99.958;2023-03-04T00:04:33;101447.31;;;31.84;43.38
74230;BME280;62589;12.568;99.958;2023-03-04T00:07:00;101452.50;;;31.86;43.70
74230;BME280;62589;12.568;99.958;2023-03-04T00:09:26;101456.16;;;31.90;43.56
74230;BME280;62589;12.568;99.958;2023-03-04T00:11:53;101462.53;;;31.90;43.27
74230;BME280;62589;12.568;99.958;2023-03-04T00:14:19;101459.47;;;31.95;43.80
74230;BME280;62589;12.568;99.958;2023-03-04T00:16:46;101471.38;;;31.96;43.49
74230;BME280;62589;12.568;99.958;2023-03-04T00:19:14;101472.25;;;32.00;43.48
74230;BME280;62589;12.568;99.958;2023-03-04T00:21:40;101476.69;;;32.04;43.44
74230;BME280;62589;12.568;99.958;2023-03-04T00:24:07;101479.09;;;32.06;43.23
74230;BME280;62589;12.568;99.958;2023-03-04T00:26:33;101475.69;;;32.13;43.42
74230;BME280;62589;12.568;99.958;2023-03-04T00:29:00;101483.66;;;32.14;43.52
74230;BME280;62589;12.568;99.958;2023-03-04T00:31:26;101488.13;;;32.19;43.23
74230;BME280;62589;12.568;99.958;2023-03-04T00:33:53;101487.47;;;32.25;43.45
74230;BME280;62589;12.568;99.958;2023-03-04T00:36:19;101499.81;;;32.28;43.10
74230;BME280;62589;12.568;99.958;2023-03-04T00:38:46;101505.91;;;32.33;43.54
74230;BME280;62589;12.568;99.958;2023-03-04T00:41:12;101515.13;;;32.37;43.84
74230;BME280;62589;12.568;99.958;2023-03-04T00:43:39;101515.19;;;32.41;43.32
74230;BME280;62589;12.568;99.958;2023-03-04T00:46:05;101524.44;;;32.49;43.37
74230;BME280;62589;12.568;99.958;2023-03-04T00:48:32;101533.66;;;32.53;43.17
74230;BME280;62589;12.568;99.958;2023-03-04T00:50:58;101530.59;;;32.58;42.88
74230;BME280;62589;12.568;99.958;2023-03-04T00:53:25;101539.00;;;32.61;43.25
74230;BME280;62589;12.568;99.958;2023-03-04T00:55:51;101543.06;;;32.67;43.01
74230;BME280;62589;12.568;99.958;2023-03-04T00:58:18;101540.78;;;32.73;43.10
74230;BME280;62589;12.568;99.958;2023-03-04T01:00:44;101550.47;;;32.79;42.88
74230;BME280;62589;12.568;99.958;2023-03-04T01:03:11;101550.97;;;32.85;42.55
74230;BME280;62589;12.568;99.958;2023-03-04T01:05:37;101563.75;;;32.89;42.57
74230;BME280;62589;12.568;99.958;2023-03-04T01:08:04;101567.47;;;32.97;43.00
74230;BME280;62589;12.568;99.958;2023-03-04T01:10:31;101565.22;;;33.02;43.00
74230;BME280;62589;12.568;99.958;2023-03-04T01:12:58;101567.66;;;33.07;42.44
74230;BME280;62589;12.568;99.958;2023-03-04T01:15:24;101570.50;;;33.11;41.99
74230;BME280;62589;12.568;99.958;2023-03-04T01:17:51;101575.41;;;33.18;42.32
74230;BME280;62589;12.568;99.958;2023-03-04T01:20:17;101583.81;;;33.21;41.90
74230;BME280;62589;12.568;99.958;2023-03-04T01:22:44;101586.34;;;33.30;41.77
74230;BME280;62589;12.568;99.958;2023-03-04T01:25:11;101595.22;;;33.35;41.71
74230;BME280;62589;12.568;99.958;2023-03-04T01:27:37;101586.13;;;33.38;41.46
74230;BME280;62589;12.568;99.958;2023-03-04T01:30:04;101594.97;;;33.44;41.61
74230;BME280;62589;12.568;99.958;2023-03-04T01:32:31;101594.69;;;33.53;41.50
74230;BME280;62589;12.568;99.958;2023-03-04T01:34:58;101607.94;;;33.59;41.50
74230;BME280;62589;12.568;99.958;2023-03-04T01:37:24;101604.84;;;33.64;41.73
74230;BME280;62589;12.568;99.958;2023-03-04T01:39:51;101612.84;;;33.69;41.44
74230;BME280;62589;12.568;99.958;2023-03-04T01:42:20;101610.50;;;33.71;41.64
74230;BME280;62589;12.568;99.958;2023-03-04T01:44:47;101607.06;;;33.78;41.24
74230;BME280;62589;12.568;99.958;2023-03-04T01:47:15;101617.06;;;33.83;41.07
74230;BME280;62589;12.568;99.958;2023-03-04T01:49:42;101618.75;;;33.87;40.88
74230;BME280;62589;12.568;99.958;2023-03-04T01:52:12;101629.16;;;33.94;41.25
74230;BME280;62589;12.568;99.958;2023-03-04T01:54:40;101627.28;;;34.01;41.37
74230;BME280;62589;12.568;99.958;2023-03-04T01:57:19;101638.56;;;34.08;41.63
74230;BME280;62589;12.568;99.958;2023-03-04T01:59:46;101643.03;;;34.17;41.59
74230;BME280;62589;12.568;99.958;2023-03-04T02:02:32;101651.06;;;34.22;41.31
74230;BME280;62589;12.568;99.958;2023-03-04T02:04:59;101648.41;;;34.29;41.08
74230;BME280;62589;12.568;99.958;2023-03-04T02:07:25;101656.81;;;34.32;41.18
74230;BME280;62589;12.568;99.958;2023-03-04T02:09:55;101646.09;;;34.34;41.14
74230;BME280;62589;12.568;99.958;2023-03-04T02:12:31;101658.56;;;34.44;40.41
74230;BME280;62589;12.568;99.958;2023-03-04T02:15:00;101662.59;;;34.46;40.59
74230;BME280;62589;12.568;99.958;2023-03-04T02:17:31;101664.66;;;34.53;40.54
74230;BME280;62589;12.568;99.958;2023-03-04T02:23:05;101674.00;;;34.68;39.65
74230;BME280;62589;12.568;99.958;2023-03-04T02:25:49;101669.69;;;34.74;40.16
74230;BME280;62589;12.568;99.958;2023-03-04T02:28:17;101677.00;;;34.82;39.55
74230;BME280;62589;12.568;99.958;2023-03-04T02:30:49;101680.63;;;34.86;39.93
74230;BME280;62589;12.568;99.958;2023-03-04T02:33:22;101674.31;;;34.93;39.52
74230;BME280;62589;12.568;99.958;2023-03-04T02:35:49;101676.75;;;34.98;39.56
74230;BME280;62589;12.568;99.958;2023-03-04T02:38:15;101682.81;;;35.03;39.41
74230;BME280;62589;12.568;99.958;2023-03-04T02:40:46;101682.84;;;35.07;39.58
74230;BME280;62589;12.568;99.958;2023-03-04T02:43:13;101686.50;;;35.11;39.66
74230;BME280;62589;12.568;99.958;2023-03-04T02:45:48;101676.94;;;35.15;39.41
74230;BME280;62589;12.568;99.958;2023-03-04T02:48:18;101686.59;;;35.22;39.65
74230;BME280;62589;12.568;99.958;2023-03-04T02:50:53;101693.47;;;35.28;39.29
74230;BME280;62589;12.568;99.958;2023-03-04T02:53:20;101696.31;;;35.31;39.30
74230;BME280;62589;12.568;99.958;2023-03-04T02:55:47;101697.97;;;35.39;39.67
74230;BME280;62589;12.568;99.958;2023-03-04T02:58:14;101687.63;;;35.43;39.18
74230;BME280;62589;12.568;99.958;2023-03-04T03:00:41;101693.28;;;35.51;39.02
74230;BME280;62589;12.568;99.958;2023-03-04T03:03:08;101697.72;;;35.59;39.13
74230;BME280;62589;12.568;99.958;2023-03-04T03:05:35;101700.19;;;35.64;38.92
74230;BME280;62589;12.568;99.958;2023-03-04T03:08:03;101693.03;;;35.66;39.03
74230;BME280;62589;12.568;99.958;2023-03-04T03:10:29;101692.31;;;35.76;38.85
74230;BME280;62589;12.568;99.958;2023-03-04T03:12:56;101699.97;;;35.83;38.40
74230;BME280;62589;12.568;99.958;2023-03-04T03:15:22;101694.06;;;35.92;37.76
74230;BME280;62589;12.568;99.958;2023-03-04T03:17:49;101690.47;;;35.98;37.29
74230;BME280;62589;12.568;99.958;2023-03-04T03:20:16;101686.50;;;35.99;37.04
74230;BME280;62589;12.568;99.958;2023-03-04T03:22:43;101688.97;;;36.08;37.00
74230;BME280;62589;12.568;99.958;2023-03-04T03:25:12;101688.22;;;36.14;36.71
74230;BME280;62589;12.568;99.958;2023-03-04T03:27:39;101689.03;;;36.22;37.13
74230;BME280;62589;12.568;99.958;2023-03-04T03:30:07;101685.84;;;36.24;36.77
74230;BME280;62589;12.568;99.958;2023-03-04T03:32:34;101685.53;;;36.32;36.84
74230;BME280;62589;12.568;99.958;2023-03-04T03:35:00;101684.38;;;36.40;36.39
74230;BME280;62589;12.568;99.958;2023-03-04T03:37:30;101688.38;;;36.39;36.44
74230;BME280;62589;12.568;99.958;2023-03-04T03:40:03;101684.41;;;36.44;36.43
74230;BME280;62589;12.568;99.958;2023-03-04T03:42:33;101682.44;;;36.52;36.67
74230;BME280;62589;12.568;99.958;2023-03-04T03:44:59;101677.28;;;36.61;36.66
74230;BME280;62589;12.568;99.958;2023-03-04T03:47:26;101677.28;;;36.64;36.28
74230;BME280;62589;12.568;99.958;2023-03-04T03:49:53;101684.50;;;36.69;36.13
74230;BME280;62589;12.568;99.958;2023-03-04T03:52:19;101679.72;;;36.69;36.02
74230;BME280;62589;12.568;99.958;2023-03-04T03:54:46;101676.53;;;36.71;36.04
74230;BME280;62589;12.568;99.958;2023-03-04T03:57:12;101675.78;;;36.74;35.98
74230;BME280;62589;12.568;99.958;2023-03-04T03:59:39;101675.78;;;36.77;35.73
74230;BME280;62589;12.568;99.958;2023-03-04T04:02:05;101673.38;;;36.83;35.47
74230;BME280;62589;12.568;99.958;2023-03-04T04:04:32;101669.78;;;36.86;35.52
74230;BME280;62589;12.568;99.958;2023-03-04T04:06:58;101663.81;;;36.91;35.11
74230;BME280;62589;12.568;99.958;2023-03-04T04:09:25;101655.44;;;36.95;34.96
74230;BME280;62589;12.568;99.958;2023-03-04T04:11:51;101667.03;;;37.00;34.78
74230;BME280;62589;12.568;99.958;2023-03-04T04:14:18;101654.63;;;37.01;34.52
74230;BME280;62589;12.568;99.958;2023-03-04T04:16:44;101644.63;;;37.00;34.27
74230;BME280;62589;12.568;99.958;2023-03-04T04:19:18;101637.03;;;37.04;34.63
74230;BME280;62589;12.568;99.958;2023-03-04T04:21:46;101638.66;;;37.12;34.59
74230;BME280;62589;12.568;99.958;2023-03-04T04:24:12;101644.66;;;37.14;34.84
74230;BME280;62589;12.568;99.958;2023-03-04T04:26:39;101643.09;;;37.21;34.95
74230;BME280;62589;12.568;99.958;2023-03-04T04:29:07;101632.69;;;37.17;35.14
74230;BME280;62589;12.568;99.958;2023-03-04T04:31:34;101622.69;;;37.24;34.97
74230;BME280;62589;12.568;99.958;2023-03-04T04:34:00;101626.28;;;37.24;34.57
74230;BME280;62589;12.568;99.958;2023-03-04T04:36:27;101626.69;;;37.30;34.78
74230;BME280;62589;12.568;99.958;2023-03-04T04:38:53;101618.31;;;37.30;34.75
74230;BME280;62589;12.568;99.958;2023-03-04T04:41:23;101612.69;;;37.26;34.80
74230;BME280;62589;12.568;99.958;2023-03-04T04:43:50;101608.69;;;37.31;34.73
74230;BME280;62589;12.568;99.958;2023-03-04T04:46:17;101601.09;;;37.35;34.80
74230;BME280;62589;12.568;99.958;2023-03-04T04:48:44;101599.09;;;37.39;34.58
74230;BME280;62589;12.568;99.958;2023-03-04T04:51:11;101596.28;;;37.42;34.54
74230;BME280;62589;12.568;99.958;2023-03-04T04:53:37;101586.28;;;37.41;34.36
74230;BME280;62589;12.568;99.958;2023-03-04T04:56:12;101581.88;;;37.44;34.14
74230;BME280;62589;12.568;99.958;2023-03-04T04:58:39;101575.06;;;37.48;34.53
74230;BME280;62589;12.568;99.958;2023-03-04T05:01:06;101577.47;;;37.46;34.13
74230;BME280;62589;12.568;99.958;2023-03-04T05:03:34;101565.47;;;37.49;34.02
74230;BME280;62589;12.568;99.958;2023-03-04T05:06:02;101564.66;;;37.49;34.23
74230;BME280;62589;12.568;99.958;2023-03-04T05:08:29;101557.47;;;37.52;34.23
74230;BME280;62589;12.568;99.958;2023-03-04T05:10:55;101549.06;;;37.55;34.21
74230;BME280;62589;12.568;99.958;2023-03-04T05:13:22;101553.06;;;37.58;34.34
74230;BME280;62589;12.568;99.958;2023-03-04T05:15:51;101539.84;;;37.55;34.14
74230;BME280;62589;12.568;99.958;2023-03-04T05:18:19;101537.84;;;37.55;34.14
74230;BME280;62589;12.568;99.958;2023-03-04T05:20:54;101524.66;;;37.56;34.05
74230;BME280;62589;12.568;99.958;2023-03-04T05:23:22;101530.25;;;37.59;33.78
74230;BME280;62589;12.568;99.958;2023-03-04T05:25:48;101519.03;;;37.59;33.68
74230;BME280;62589;12.568;99.958;2023-03-04T05:28:15;101513.03;;;37.57;34.23
74230;BME280;62589;12.568;99.958;2023-03-04T05:30:43;101507.84;;;37.59;33.76
74230;BME280;62589;12.568;99.958;2023-03-04T05:33:11;101503.03;;;37.56;33.75
74230;BME280;62589;12.568;99.958;2023-03-04T05:35:39;101502.22;;;37.56;33.53
74230;BME280;62589;12.568;99.958;2023-03-04T05:38:08;101497.44;;;37.60;33.50
74230;BME280;62589;12.568;99.958;2023-03-04T05:40:35;101484.22;;;37.60;33.41
74230;BME280;62589;12.568;99.958;2023-03-04T05:43:02;101474.97;;;37.63;33.44
74230;BME280;62589;12.568;99.958;2023-03-04T05:45:29;101483.81;;;37.62;33.40
74230;BME280;62589;12.568;99.958;2023-03-04T05:47:55;101478.22;;;37.58;32.99
74230;BME280;62589;12.568;99.958;2023-03-04T05:50:22;101476.56;;;37.64;32.99
74230;BME280;62589;12.568;99.958;2023-03-04T05:52:49;101471.81;;;37.61;33.06
74230;BME280;62589;12.568;99.958;2023-03-04T05:55:16;101453.00;;;37.62;33.15
74230;BME280;62589;12.568;99.958;2023-03-04T05:57:43;101456.59;;;37.66;33.10
74230;BME280;62589;12.568;99.958;2023-03-04T06:00:11;101450.19;;;37.65;33.25
74230;BME280;62589;12.568;99.958;2023-03-04T06:02:38;101438.19;;;37.65;32.79
74230;BME280;62589;12.568;99.958;2023-03-04T06:05:06;101436.16;;;37.65;32.72
74230;BME280;62589;12.568;99.958;2023-03-04T06:07:32;101430.16;;;37.63;31.99
74230;BME280;62589;12.568;99.958;2023-03-04T06:09:59;101426.53;;;37.63;31.58
74230;BME280;62589;12.568;99.958;2023-03-04T06:12:26;101422.19;;;37.58;31.13
74230;BME280;62589;12.568;99.958;2023-03-04T06:14:54;101416.19;;;37.60;31.20
74230;BME280;62589;12.568;99.958;2023-03-04T06:17:20;101401.78;;;37.58;31.38
74230;BME280;62589;12.568;99.958;2023-03-04T06:19:47;101399.78;;;37.58;30.37
74230;BME280;62589;12.568;99.958;2023-03-04T06:22:13;101398.16;;;37.61;30.77
74230;BME280;62589;12.568;99.958;2023-03-04T06:24:40;101387.75;;;37.61;30.74
74230;BME280;62589;12.568;99.958;2023-03-04T06:27:06;101381.72;;;37.63;30.42
74230;BME280;62589;12.568;99.958;2023-03-04T06:29:33;101371.31;;;37.63;31.30
74230;BME280;62589;12.568;99.958;2023-03-04T06:31:59;101371.34;;;37.60;31.18
74230;BME280;62589;12.568;99.958;2023-03-04T06:34:26;101370.16;;;37.61;31.04
74230;BME280;62589;12.568;99.958;2023-03-04T06:36:54;101370.94;;;37.61;31.04
74230;BME280;62589;12.568;99.958;2023-03-04T06:39:21;101365.34;;;37.61;31.33
74230;BME280;62589;12.568;99.958;2023-03-04T06:41:47;101362.91;;;37.63;31.74
74230;BME280;62589;12.568;99.958;2023-03-04T06:44:14;101370.94;;;37.65;32.16
74230;BME280;62589;12.568;99.958;2023-03-04T06:46:40;101363.69;;;37.64;32.25
74230;BME280;62589;12.568;99.958;2023-03-04T06:49:07;101361.31;;;37.62;32.30
74230;BME280;62589;12.568;99.958;2023-03-04T06:51:33;101357.72;;;37.62;32.53
74230;BME280;62589;12.568;99.958;2023-03-04T06:53:59;101347.72;;;37.61;32.62
74230;BME280;62589;12.568;99.958;2023-03-04T06:56:26;101343.72;;;37.62;32.80
74230;BME280;62589;12.568;99.958;2023-03-04T06:58:52;101338.13;;;37.62;32.87
74230;BME280;62589;12.568;99.958;2023-03-04T07:01:23;101337.31;;;37.61;32.31
74230;BME280;62589;12.568;99.958;2023-03-04T07:03:50;101331.72;;;37.61;32.57
74230;BME280;62589;12.568;99.958;2023-03-04T07:06:19;101330.91;;;37.61;33.11
74230;BME280;62589;12.568;99.958;2023-03-04T07:08:47;101325.72;;;37.59;32.89
74230;BME280;62589;12.568;99.958;2023-03-04T07:11:14;101318.13;;;37.56;32.60
74230;BME280;62589;12.568;99.958;2023-03-04T07:13:41;101323.75;;;37.56;32.84
74230;BME280;62589;12.568;99.958;2023-03-04T07:16:11;101308.13;;;37.55;32.90
74230;BME280;62589;12.568;99.958;2023-03-04T07:18:38;101303.72;;;37.54;32.90
74230;BME280;62589;12.568;99.958;2023-03-04T07:21:05;101298.56;;;37.49;32.61
74230;BME280;62589;12.568;99.958;2023-03-04T07:23:35;101295.75;;;37.49;32.98
74230;BME280;62589;12.568;99.958;2023-03-04T07:26:02;101289.34;;;37.48;32.84
74230;BME280;62589;12.568;99.958;2023-03-04T07:28:29;101287.34;;;37.49;32.56
74230;BME280;62589;12.568;99.958;2023-03-04T07:30:55;101284.97;;;37.44;32.60
74230;BME280;62589;12.568;99.958;2023-03-04T07:33:22;101275.38;;;37.41;33.22
74230;BME280;62589;12.568;99.958;2023-03-04T07:35:48;101274.59;;;37.41;33.36
74230;BME280;62589;12.568;99.958;2023-03-04T07:38:23;101276.16;;;37.42;33.15
74230;BME280;62589;12.568;99.958;2023-03-04T07:40:55;101264.97;;;37.42;33.33
74230;BME280;62589;12.568;99.958;2023-03-04T07:43:21;101267.78;;;37.42;33.11
74230;BME280;62589;12.568;99.958;2023-03-04T07:45:48;101257.81;;;37.37;33.22
74230;BME280;62589;12.568;99.958;2023-03-04T07:48:14;101252.22;;;37.37;33.05
74230;BME280;62589;12.568;99.958;2023-03-04T07:50:41;101253.81;;;37.38;33.22
74230;BME280;62589;12.568;99.958;2023-03-04T07:53:07;101244.22;;;37.36;32.96
74230;BME280;62589;12.568;99.958;2023-03-04T07:55:34;101251.03;;;37.35;33.62
74230;BME280;62589;12.568;99.958;2023-03-04T07:58:00;101245.44;;;37.35;33.49
74230;BME280;62589;12.568;99.958;2023-03-04T08:00:28;101247.03;;;37.36;33.55
74230;BME280;62589;12.568;99.958;2023-03-04T08:02:54;101234.22;;;37.35;33.49
74230;BME280;62589;12.568;99.958;2023-03-04T08:05:23;101237.03;;;37.35;33.55
74230;BME280;62589;12.568;99.958;2023-03-04T08:07:53;101232.63;;;37.37;33.69
74230;BME280;62589;12.568;99.958;2023-03-04T08:10:22;101228.22;;;37.33;33.54
74230;BME280;62589;12.568;99.958;2023-03-04T09:27:50;101177.25;;;36.90;34.31
74230;BME280;62589;12.568;99.958;2023-03-04T09:30:17;101177.66;;;36.88;33.90
74230;BME280;62589;12.568;99.958;2023-03-04T09:32:44;101173.25;;;36.87;33.74
74230;BME280;62589;12.568;99.958;2023-03-04T09:35:10;101172.88;;;36.85;33.83
74230;BME280;62589;12.568;99.958;2023-03-04T09:37:37;101176.06;;;36.83;33.85
74230;BME280;62589;12.568;99.958;2023-03-04T09:40:05;101180.06;;;36.79;34.39
74230;BME280;62589;12.568;99.958;2023-03-04T09:42:35;101182.88;;;36.79;34.39
74230;BME280;62589;12.568;99.958;2023-03-04T09:45:06;101179.72;;;36.77;34.48
74230;BME280;62589;12.568;99.958;2023-03-04T09:47:34;101183.31;;;36.74;34.63
74230;BME280;62589;12.568;99.958;2023-03-04T09:50:07;101190.50;;;36.71;34.47
74230;BME280;62589;12.568;99.958;2023-03-04T09:52:54;101180.91;;;36.69;34.51
74230;BME280;62589;12.568;99.958;2023-03-04T09:55:34;101169.31;;;36.67;34.59
74230;BME280;62589;12.568;99.958;2023-03-04T10:04:05;101177.72;;;36.60;35.16
74230;BME280;62589;12.568;99.958;2023-03-04T10:06:39;101184.16;;;36.57;35.13
74230;BME280;62589;12.568;99.958;2023-03-04T10:09:14;101184.16;;;36.53;35.26
74230;BME280;62589;12.568;99.958;2023-03-04T10:11:49;101188.56;;;36.51;34.95
74230;BME280;62589;12.568;99.958;2023-03-04T10:14:46;101182.97;;;36.51;35.20
74230;BME280;62589;12.568;99.958;2023-03-04T10:17:29;101184.97;;;36.46;35.37
74230;BME280;62589;12.568;99.958;2023-03-04T10:20:20;101185.38;;;36.48;35.21
74230;BME280;62589;12.568;99.958;2023-03-04T10:22:51;101186.97;;;36.42;35.18
74230;BME280;62589;12.568;99.958;2023-03-04T10:25:27;101194.97;;;36.40;35.38
74230;BME280;62589;12.568;99.958;2023-03-04T10:28:04;101192.22;;;36.37;35.34
74230;BME280;62589;12.568;99.958;2023-03-04T10:33:36;101193.41;;;36.32;35.33
74230;BME280;62589;12.568;99.958;2023-03-04T10:36:20;101197.00;;;36.33;35.07
74230;BME280;62589;12.568;99.958;2023-03-04T10:39:02;101194.22;;;36.29;34.79
74230;BME280;62589;12.568;99.958;2023-03-04T10:41:32;101209.00;;;36.26;34.75
74230;BME280;62589;12.568;99.958;2023-03-04T10:44:18;101201.00;;;36.28;35.00
74230;BME280;62589;12.568;99.958;2023-03-04T10:46:46;101213.34;;;36.20;35.03
74230;BME280;62589;12.568;99.958;2023-03-04T10:49:16;101203.41;;;36.15;34.95
74230;BME280;62589;12.568;99.958;2023-03-04T10:51:48;101205.00;;;36.13;34.84
74230;BME280;62589;12.568;99.958;2023-03-04T10:54:40;101207.00;;;36.09;35.57
74230;BME280;62589;12.568;99.958;2023-03-04T10:57:19;101209.00;;;36.08;35.42
74230;BME280;62589;12.568;99.958;2023-03-04T10:59:49;101214.19;;;36.03;35.61
74230;BME280;62589;12.568;99.958;2023-03-04T11:02:24;101215.38;;;36.16;35.48
74230;BME280;62589;12.568;99.958;2023-03-04T11:07:38;101209.81;;;35.95;35.55
74230;BME280;62589;12.568;99.958;2023-03-04T11:10:40;101215.38;;;35.98;35.57
74230;BME280;62589;12.568;99.958;2023-03-04T11:13:17;101211.78;;;35.91;35.73
74230;BME280;62589;12.568;99.958;2023-03-04T11:15:57;101218.56;;;35.86;35.83
74230;BME280;62589;12.568;99.958;2023-03-04T11:18:40;101217.38;;;35.84;35.68
74230;BME280;62589;12.568;99.958;2023-03-04T11:24:13;101235.31;;;35.79;35.71
74230;BME280;62589;12.568;99.958;2023-03-04T11:29:45;101236.91;;;35.69;36.05
74230;BME280;62589;12.568;99.958;2023-03-04T11:32:32;101240.09;;;35.68;35.58
74230;BME280;62589;12.568;99.958;2023-03-04T11:35:20;101234.50;;;35.64;35.71
74230;BME280;62589;12.568;99.958;2023-03-04T11:38:16;101240.06;;;35.64;35.58
74230;BME280;62589;12.568;99.958;2023-03-04T11:43:37;101252.03;;;35.54;35.98
74230;BME280;62589;12.568;99.958;2023-03-04T11:49:51;101263.22;;;35.54;35.77
74230;BME280;62589;12.568;99.958;2023-03-04T11:55:34;101271.97;;;35.45;36.40
74230;BME280;62589;12.568;99.958;2023-03-04T11:58:22;101275.94;;;35.41;36.36
74230;BME280;62589;12.568;99.958;2023-03-04T12:01:08;101271.13;;;35.38;36.49
74230;BME280;62589;12.568;99.958;2023-03-04T12:07:08;101273.50;;;35.36;37.17
74230;BME280;62589;12.568;99.958;2023-03-04T12:09:52;101275.13;;;35.30;37.45
74230;BME280;62589;12.568;99.958;2023-03-04T12:15:48;101289.06;;;35.30;37.18
74230;BME280;62589;12.568;99.958;2023-03-04T12:21:26;101298.97;;;35.20;37.39
74230;BME280;62589;12.568;99.958;2023-03-04T12:24:26;101297.72;;;35.14;37.48
74230;BME280;62589;12.568;99.958;2023-03-04T12:27:25;101313.28;;;35.11;37.60
74230;BME280;62589;12.568;99.958;2023-03-04T12:30:29;101317.69;;;35.12;36.99
74230;BME280;62589;12.568;99.958;2023-03-04T12:33:11;101320.84;;;35.07;36.99
74230;BME280;62589;12.568;99.958;2023-03-04T12:41:58;101329.53;;;34.95;37.53
74230;BME280;62589;12.568;99.958;2023-03-04T12:44:38;101333.91;;;34.89;37.32
74230;BME280;62589;12.568;99.958;2023-03-04T12:47:20;101343.50;;;34.99;37.09
74230;BME280;62589;12.568;99.958;2023-03-04T12:55:38;101352.91;;;34.76;37.86
74230;BME280;62589;12.568;99.958;2023-03-04T12:58:14;101360.84;;;34.71;37.93
74230;BME280;62589;12.568;99.958;2023-03-04T13:04:22;101364.00;;;34.66;37.63
74230;BME280;62589;12.568;99.958;2023-03-04T13:09:57;101377.44;;;34.57;37.87
74230;BME280;62589;12.568;99.958;2023-03-04T13:12:26;101375.84;;;34.56;38.05
74230;BME280;62589;12.568;99.958;2023-03-04T13:17:53;101383.00;;;34.53;38.21
74230;BME280;62589;12.568;99.958;2023-03-04T13:23:02;101388.56;;;34.50;38.59
74230;BME280;62589;12.568;99.958;2023-03-04T13:28:23;101392.94;;;34.47;39.03
74230;BME280;62589;12.568;99.958;2023-03-04T13:31:12;101396.94;;;34.50;38.86
74230;BME280;62589;12.568;99.958;2023-03-04T13:33:45;101402.06;;;34.44;38.79
74230;BME280;62589;12.568;99.958;2023-03-04T13:36:34;101402.84;;;34.44;38.82
74230;BME280;62589;12.568;99.958;2023-03-04T13:39:24;101401.66;;;34.45;39.00
74230;BME280;62589;12.568;99.958;2023-03-04T13:41:55;101402.00;;;34.40;39.24
74230;BME280;62589;12.568;99.958;2023-03-04T13:44:54;101412.75;;;34.38;39.41
74230;BME280;62589;12.568;99.958;2023-03-04T13:47:31;101409.91;;;34.35;38.99
74230;BME280;62589;12.568;99.958;2023-03-04T13:52:48;101427.41;;;34.32;38.98
74230;BME280;62589;12.568;99.958;2023-03-04T13:58:21;101428.19;;;34.29;39.10
74230;BME280;62589;12.568;99.958;2023-03-04T14:00:52;101428.50;;;34.24;39.18
74230;BME280;62589;12.568;99.958;2023-03-04T14:03:25;101432.88;;;34.21;39.39
74230;BME280;62589;12.568;99.958;2023-03-04T14:06:11;101434.03;;;34.20;39.61
74230;BME280;62589;12.568;99.958;2023-03-04T14:08:40;101432.81;;;34.18;39.30
74230;BME280;62589;12.568;99.958;2023-03-04T14:11:14;101435.56;;;34.14;39.69
74230;BME280;62589;12.568;99.958;2023-03-04T14:13:41;101438.31;;;34.10;40.10
74230;BME280;62589;12.568;99.958;2023-03-04T14:16:09;101431.13;;;34.09;39.87
74230;BME280;62589;12.568;99.958;2023-03-04T14:18:35;101436.31;;;34.07;39.53
74230;BME280;62589;12.568;99.958;2023-03-04T14:21:03;101436.69;;;34.06;39.86
74230;BME280;62589;12.568;99.958;2023-03-04T14:23:32;101432.28;;;34.05;40.06
74230;BME280;62589;12.568;99.958;2023-03-04T14:26:11;101442.25;;;34.06;39.85
74230;BME280;62589;12.568;99.958;2023-03-04T14:28:46;101449.78;;;34.02;40.23
74230;BME280;62589;12.568;99.958;2023-03-04T14:31:19;101444.94;;;33.99;39.71
74230;BME280;62589;12.568;99.958;2023-03-04T14:33:48;101452.50;;;33.98;40.07
74230;BME280;62589;12.568;99.958;2023-03-04T14:36:18;101453.66;;;33.94;40.30
74230;BME280;62589;12.568;99.958;2023-03-04T14:38:53;101452.78;;;33.90;40.16
74230;BME280;62589;12.568;99.958;2023-03-04T14:41:34;101452.41;;;33.88;40.70
74230;BME280;62589;12.568;99.958;2023-03-04T14:44:24;101448.81;;;33.87;40.12
74230;BME280;62589;12.568;99.958;2023-03-04T14:47:06;101452.72;;;33.83;39.83
74230;BME280;62589;12.568;99.958;2023-03-04T14:49:35;101456.25;;;33.79;40.17
74230;BME280;62589;12.568;99.958;2023-03-04T14:52:04;101447.47;;;33.77;40.06
74230;BME280;62589;12.568;99.958;2023-03-04T14:54:40;101440.28;;;33.76;39.89
74230;BME280;62589;12.568;99.958;2023-03-04T14:57:22;101446.22;;;33.75;40.63
74230;BME280;62589;12.568;99.958;2023-03-04T14:59:52;101439.41;;;33.72;40.30
74230;BME280;62589;12.568;99.958;2023-03-04T15:02:38;101437.81;;;33.71;40.28
74230;BME280;62589;12.568;99.958;2023-03-04T15:05:18;101442.53;;;33.67;40.04
74230;BME280;62589;12.568;99.958;2023-03-04T15:07:57;101438.50;;;33.61;40.34
74230;BME280;62589;12.568;99.958;2023-03-04T15:10:28;101439.25;;;33.58;40.51
74230;BME280;62589;12.568;99.958;2023-03-04T15:12:58;101440.44;;;33.57;40.40
74230;BME280;62589;12.568;99.958;2023-03-04T15:15:33;101442.78;;;33.55;40.05
74230;BME280;62589;12.568;99.958;2023-03-04T15:20:41;101441.13;;;33.51;40.20
74230;BME280;62589;12.568;99.958;2023-03-04T15:23:08;101453.81;;;33.48;40.53
74230;BME280;62589;12.568;99.958;2023-03-04T15:25:39;101456.56;;;33.44;40.23
74230;BME280;62589;12.568;99.958;2023-03-04T15:28:14;101456.94;;;33.43;40.15
74230;BME280;62589;12.568;99.958;2023-03-04T15:30:42;101455.78;;;33.44;40.56